Gainesville, GA

8:36 PM EDT on September 21, 2014 (GMT -0400)
Gilmer Memorial | Change Station
CLOSE
Current Station
Airport
Location: Gainesville,
Elevation: 1276 ft
Nearby Weather Stations

Elev 1276 ft 34.27 °N, 83.83 °W | Updated 43 minutes ago

Clear
Clear
77 °F
Feels Like 77 °F
N
7
Wind Variable Wind from SW

Today
High -- | Low -- °F
--% Chance of Precip.
Yesterday
High -- | Low -- °F
Precip. -- in
7:22 AM 7:33 PM
Waning Crescent, 5% visible
Pressure 29.93 in
Visibility 10.0 miles
Clouds Clear
Dew Point 64 °F
Humidity 64%
Rainfall 0.00 in
Snow Depth Not available.
UV 0 out of 12
Pollen 7.80 out of 12
Air Quality Not available.
Flu Activity Not available.
METAR KGVL 212353Z AUTO 23006KT 10SM CLR 25/18 A2997 RMK AO2 SLP133 T02500178 10294 20250 55000

More Conditions Fewer Conditions

Pressure 29.93 in
Visibility 10.0 miles
Clouds Clear
Dew Point 64 °F
Humidity 64%
Rainfall 0.00 in
Snow Depth Not available.
UV 0 out of 12
Pollen 7.80 out of 12
Air Quality Not available.
Flu Activity Not available.
METAR KGVL 212353Z AUTO 23006KT 10SM CLR 25/18 A2997 RMK AO2 SLP133 T02500178 10294 20250 55000

More Conditions Fewer Conditions

10-Day Weather Forecast

Almanac

Astronomy

Sep. 21, 2014 Rise Set
Actual Time 7:22 AM EDT 7:33 PM EDT
Civil Twilight 6:57 AM EDT 7:58 PM EDT
Nautical Twilight 6:28 AM EDT 8:27 PM EDT
Astronomical Twilight 5:58 AM EDT 8:57 PM EDT
Moon 5:00 AM EDT (9/21) 6:05 PM EDT (9/21)
Length of Visible Light 13h 00m
Length of Day
12h 10m
Tomorrow will be 2m 7s shorter.
Waning Crescent, 5% of the Moon is Illuminated
Today
Waning Crescent
Sep 24
New
Oct 1
First Quarter
Oct 8
Full
Oct 15
Last Quarter

Today's Extremes

State Highs State Lows

Community

WunderPhotos

Upload Photos

1,755,316 photos uploaded!

WunderBlogs® & News

Nearby

Snow Depth

Station Depth Elevation
No new snow has been reported.

Earthquake Activity

City Distance Mag. Time & Date
Sweetwater, Tennessee 100 miles 2.5 3:54 PM EDT
2014-09-20
Minimum magnitude displayed is 2.5.

Coastal Water Temperatures

Place Temperature
No Stations Reporting

Nearby Weather Stations